Time;durP1;ratioP1;P1;durP2;ratioP2;P2;SDS_P1;SDS_P2;PMS_P1;PMS_P2;Temp;Humidity;BMP_temperature;BMP_pressure;BME280_temperature;BME280_humidity;BME280_pressure;Samples;Min_cycle;Max_cycle;Signal;HPM_P1;HPM_P2
2022/08/02 00:00:08;;;;;;;3.88;2.03;;;;;;;13.02;83.13;101975.28;4769266;29;20487;-74
2022/08/02 00:02:35;;;;;;;2.30;2.10;;;;;;;13.03;83.81;101977.53;4769383;30;20477;-74
2022/08/02 00:05:03;;;;;;;2.30;2.10;;;;;;;13.04;84.10;101970.28;4769090;30;20048;-74
2022/08/02 00:07:29;;;;;;;3.25;2.15;;;;;;;13.00;83.72;101970.38;4769399;30;20063;-74
2022/08/02 00:09:56;;;;;;;2.28;2.17;;;;;;;13.00;84.28;101969.63;4769280;30;20044;-74
2022/08/02 00:12:22;;;;;;;2.40;2.25;;;;;;;12.97;85.11;101965.13;4768808;30;20114;-74
2022/08/02 00:14:52;;;;;;;3.63;2.00;;;;;;;12.91;85.40;101970.25;4769530;30;20052;-74
2022/08/02 00:17:18;;;;;;;2.67;2.10;;;;;;;12.89;85.22;101966.50;4769068;30;20082;-74
2022/08/02 00:19:45;;;;;;;3.50;2.10;;;;;;;12.82;85.35;101970.13;4768917;30;20123;-74
2022/08/02 00:22:12;;;;;;;2.42;2.10;;;;;;;12.81;85.74;101970.53;4768956;30;20052;-74
2022/08/02 00:24:39;;;;;;;3.88;2.53;;;;;;;12.80;85.74;101961.78;4768678;30;20052;-74
2022/08/02 00:27:07;;;;;;;4.07;2.38;;;;;;;12.81;85.62;101955.25;4769210;30;20056;-74
2022/08/02 00:29:36;;;;;;;2.42;2.08;;;;;;;12.85;85.45;101955.16;4768908;30;20060;-74
2022/08/02 00:32:20;;;;;;;6.00;2.30;;;;;;;12.84;85.01;101951.72;4767728;30;20537;-74
2022/08/02 00:34:47;;;;;;;1.85;1.75;;;;;;;12.78;85.20;101956.13;4769087;30;20044;-75
2022/08/02 00:37:13;;;;;;;2.30;2.10;;;;;;;12.71;85.17;101953.66;4768860;30;20048;-74
2022/08/02 00:39:41;;;;;;;5.20;1.95;;;;;;;12.68;85.19;101952.56;4767501;30;20067;-74
2022/08/02 00:42:08;;;;;;;2.63;2.42;;;;;;;12.69;84.86;101948.72;4768700;30;20052;-74
2022/08/02 00:44:35;;;;;;;3.72;2.38;;;;;;;12.64;85.13;101940.50;4768540;30;20055;-74
2022/08/02 00:47:02;;;;;;;2.17;2.08;;;;;;;12.56;85.44;101941.84;4768796;30;20048;-74
2022/08/02 00:49:29;;;;;;;2.45;2.17;;;;;;;12.53;85.16;101938.09;4767246;30;20064;-75
2022/08/02 00:51:55;;;;;;;3.17;2.67;;;;;;;12.50;85.73;101936.28;4768859;30;20052;-74
2022/08/02 00:54:22;;;;;;;2.75;2.40;;;;;;;12.53;85.34;101934.69;4768273;30;20048;-74
2022/08/02 00:56:48;;;;;;;4.05;2.40;;;;;;;12.53;85.89;101934.69;4768904;30;20083;-74
2022/08/02 00:59:17;;;;;;;9.25;2.40;;;;;;;12.51;85.22;101934.34;4768458;30;20117;-74
2022/08/02 01:01:44;;;;;;;2.38;2.17;;;;;;;12.46;86.12;101929.53;4766971;30;20135;-74
2022/08/02 01:04:26;;;;;;;2.50;2.30;;;;;;;12.41;85.74;101930.81;4754041;30;20056;-74
2022/08/02 01:06:58;;;;;;;2.30;2.20;;;;;;;12.42;85.85;101931.56;4768201;30;20440;-74
2022/08/02 01:09:25;;;;;;;5.10;2.40;;;;;;;12.40;86.41;101931.22;4767459;30;20552;-74
2022/08/02 01:11:52;;;;;;;7.03;2.40;;;;;;;12.34;86.01;101926.41;4767161;30;20048;-74
2022/08/02 01:14:19;;;;;;;2.83;2.28;;;;;;;12.34;86.18;101937.09;4767527;30;20052;-74
2022/08/02 01:16:51;;;;;;;2.45;2.13;;;;;;;12.33;86.41;101935.59;4768812;30;20200;-74
2022/08/02 01:19:47;;;;;;;3.17;2.70;;;;;;;12.35;85.73;101919.16;4768602;30;20060;-74
2022/08/02 01:22:42;;;;;;;2.10;2.00;;;;;;;12.35;85.32;101927.16;4768595;30;20518;-74
2022/08/02 01:25:46;;;;;;;3.55;2.30;;;;;;;12.33;85.67;101919.59;4768679;30;20417;-74
2022/08/02 01:28:33;;;;;;;2.40;2.20;;;;;;;12.30;85.99;101915.09;4768321;30;20067;-74
2022/08/02 01:31:15;;;;;;;6.90;2.35;;;;;;;12.29;86.08;101902.91;4768419;30;20056;-74
2022/08/02 01:33:51;;;;;;;4.93;2.20;;;;;;;12.29;86.04;101904.81;4767222;30;20057;-73
2022/08/02 01:36:20;;;;;;;4.93;2.50;;;;;;;12.29;86.74;101912.84;4768662;30;20060;-74
2022/08/02 01:38:49;;;;;;;2.45;2.25;;;;;;;12.26;86.31;101908.34;4767680;30;20048;-74
2022/08/02 01:41:20;;;;;;;2.42;2.20;;;;;;;12.24;86.93;101903.41;4768427;30;20044;-74
2022/08/02 01:43:50;;;;;;;8.20;2.40;;;;;;;12.21;86.55;101903.50;4768193;30;20110;-74
2022/08/02 01:46:19;;;;;;;6.35;2.70;;;;;;;12.18;87.02;101901.69;4768442;30;20053;-74
2022/08/02 01:48:47;;;;;;;5.72;2.70;;;;;;;12.17;87.00;101900.19;4766610;30;20463;-74
2022/08/02 01:51:17;;;;;;;2.88;2.67;;;;;;;12.17;87.29;101898.28;4770409;30;20552;-74
2022/08/02 01:53:48;;;;;;;2.60;2.40;;;;;;;12.17;87.07;101898.28;4769290;30;20146;-74
2022/08/02 01:56:17;;;;;;;2.58;2.38;;;;;;;12.17;87.43;101900.94;4770480;30;20056;-74
2022/08/02 01:58:46;;;;;;;2.70;2.50;;;;;;;12.17;86.93;101892.94;4771052;30;20048;-74
2022/08/02 02:01:14;;;;;;;5.32;2.60;;;;;;;12.17;87.22;101894.84;4771119;30;20486;-74
2022/08/02 02:03:47;;;;;;;2.78;2.58;;;;;;;12.17;86.77;101897.53;4770942;30;20125;-74
2022/08/02 02:06:14;;;;;;;3.53;2.70;;;;;;;12.15;86.98;101897.19;4770576;30;20489;-74
2022/08/02 02:08:43;;;;;;;2.83;2.55;;;;;;;12.12;87.32;101895.38;4771002;30;20499;-74
2022/08/02 02:11:09;;;;;;;3.20;2.55;;;;;;;12.11;87.79;101894.63;4771022;30;20486;-74
2022/08/02 02:13:59;;;;;;;4.72;2.78;;;;;;;12.13;87.11;101897.59;4771007;30;20122;-74
2022/08/02 02:16:27;;;;;;;2.53;2.33;;;;;;;12.14;87.33;101893.03;4770510;30;20056;-74
2022/08/02 02:18:54;;;;;;;2.80;2.60;;;;;;;12.16;86.64;101888.75;4754837;30;20097;-74
2022/08/02 02:21:21;;;;;;;6.22;3.10;;;;;;;12.16;86.60;101894.09;4769235;30;20052;-74
2022/08/02 02:23:47;;;;;;;4.35;3.20;;;;;;;12.16;87.09;101888.75;4771093;30;20052;-74
2022/08/02 02:26:18;;;;;;;3.42;2.85;;;;;;;12.17;86.69;101890.25;4770989;30;20059;-74
2022/08/02 02:28:58;;;;;;;4.82;3.30;;;;;;;12.17;87.08;101870.81;4770647;30;20049;-74
2022/08/02 02:31:27;;;;;;;4.82;3.10;;;;;;;12.18;87.29;101870.41;4770534;30;20052;-74
2022/08/02 02:34:01;;;;;;;3.40;3.10;;;;;;;12.19;86.93;101871.91;4770326;30;20060;-74
2022/08/02 02:36:29;;;;;;;3.38;3.17;;;;;;;12.18;87.54;101878.41;4769006;30;20059;-74
2022/08/02 02:39:00;;;;;;;3.72;3.42;;;;;;;12.17;87.06;101871.56;4770704;30;20052;-74
2022/08/02 02:41:28;;;;;;;3.72;3.40;;;;;;;12.12;87.95;101864.09;4770325;30;20522;-74
2022/08/02 02:43:58;;;;;;;3.42;3.00;;;;;;;12.08;88.15;101871.44;4769254;30;20102;-74
2022/08/02 02:46:28;;;;;;;3.50;3.30;;;;;;;12.09;88.00;101851.56;4770578;30;20059;-74
2022/08/02 02:48:55;;;;;;;5.50;3.60;;;;;;;12.09;87.88;101856.91;4769938;30;20064;-74
2022/08/02 02:51:23;;;;;;;4.18;3.42;;;;;;;12.06;88.06;101857.00;4769968;30;20076;-74
2022/08/02 02:53:51;;;;;;;4.53;3.40;;;;;;;12.10;87.93;101853.06;4770227;30;20085;-74
2022/08/02 02:56:39;;;;;;;5.10;3.75;;;;;;;12.09;88.16;101864.91;4770431;30;20494;-74
2022/08/02 02:59:07;;;;;;;5.75;3.60;;;;;;;12.09;88.33;101859.59;4754319;30;20052;-74
2022/08/02 03:01:34;;;;;;;5.82;3.60;;;;;;;12.14;88.37;101861.00;4769551;30;20048;-74
2022/08/02 03:04:22;;;;;;;4.00;3.70;;;;;;;12.16;87.87;101864.00;4769848;30;20110;-74
2022/08/02 03:06:49;;;;;;;4.20;3.22;;;;;;;12.21;87.94;101871.47;4770390;30;20514;-74
2022/08/02 03:09:16;;;;;;;3.55;3.22;;;;;;;12.25;87.38;101867.53;4770466;30;20052;-74
2022/08/02 03:11:43;;;;;;;4.10;3.50;;;;;;;12.29;88.13;101864.78;4770096;30;20052;-74
2022/08/02 03:14:10;;;;;;;5.43;3.35;;;;;;;12.35;86.55;101873.78;4770206;30;20167;-74
2022/08/02 03:16:50;;;;;;;3.70;3.40;;;;;;;12.40;86.26;101867.13;4769990;30;20056;-74
2022/08/02 03:19:18;;;;;;;3.72;3.50;;;;;;;12.45;86.64;101874.63;4769908;30;20521;-74
2022/08/02 03:21:46;;;;;;;6.13;3.35;;;;;;;12.47;86.92;101864.25;4770024;30;20055;-74
2022/08/02 03:24:21;;;;;;;7.40;3.42;;;;;;;12.49;85.59;101854.66;4770137;30;20057;-74
2022/08/02 03:26:53;;;;;;;;;;;;;;;12.54;85.73;101862.16;4770655;30;20131;-74
2022/08/02 03:29:20;;;;;;;5.75;3.28;;;;;;;12.56;85.64;101849.13;4770246;30;20398;-74
2022/08/02 03:31:47;;;;;;;5.70;3.38;;;;;;;12.60;85.11;101854.34;4768573;30;20063;-74
2022/08/02 03:34:13;;;;;;;6.45;3.40;;;;;;;12.64;85.03;101850.41;4769624;30;20052;-74
2022/08/02 03:36:41;;;;;;;4.35;3.20;;;;;;;12.68;84.93;101847.63;4770028;30;20059;-74
2022/08/02 03:39:09;;;;;;;4.68;3.40;;;;;;;12.71;84.53;101838.78;4768160;30;20407;-74
2022/08/02 03:41:37;;;;;;;5.35;3.53;;;;;;;12.75;84.45;101836.00;4769623;30;20141;-74
2022/08/02 03:44:06;;;;;;;5.00;3.03;;;;;;;12.77;84.86;101831.72;4753504;30;20714;-74
2022/08/02 03:46:34;;;;;;;5.50;3.35;;;;;;;12.80;84.08;101819.41;4768354;30;20052;-74
2022/08/02 03:49:01;;;;;;;6.88;3.33;;;;;;;12.81;85.44;101823.56;4768704;30;20063;-74
2022/08/02 03:51:27;;;;;;;4.75;3.40;;;;;;;12.82;85.08;101825.06;4753504;30;20056;-74
2022/08/02 03:53:55;;;;;;;4.85;3.45;;;;;;;12.85;85.22;101821.53;4769470;30;20063;-74
2022/08/02 03:56:22;;;;;;;7.93;3.58;;;;;;;12.86;85.18;101810.44;4768816;30;20057;-74
2022/08/02 03:58:49;;;;;;;6.15;3.45;;;;;;;12.91;86.24;101822.50;4769436;30;20048;-74
2022/08/02 04:01:15;;;;;;;6.63;3.90;;;;;;;12.92;85.56;101827.44;4769264;30;20052;-75
2022/08/02 04:03:42;;;;;;;4.40;3.33;;;;;;;12.96;85.79;101827.31;4768521;30;21112;-74
2022/08/02 04:06:09;;;;;;;3.88;3.58;;;;;;;12.98;86.04;101828.38;4769012;30;20052;-74
2022/08/02 04:08:35;;;;;;;7.13;3.47;;;;;;;12.99;86.28;101827.22;4769126;30;20059;-74
2022/08/02 04:13:51;;;;;;;3.67;3.20;;;;;;;13.01;86.03;101824.09;4769446;30;20052;-74
2022/08/02 04:16:27;;;;;;;;;;;;;;;13.06;85.60;101822.81;4769716;30;20056;-74
2022/08/02 04:18:56;;;;;;;3.10;2.90;;;;;;;13.03;86.25;101827.84;4769072;30;19930;-74
2022/08/02 04:21:27;;;;;;;5.80;3.28;;;;;;;13.03;86.32;101835.88;4768497;30;20052;-74
2022/08/02 04:24:17;;;;;;;3.78;3.03;;;;;;;13.00;86.65;101828.69;4769118;30;20087;-75
2022/08/02 04:26:45;;;;;;;6.47;3.47;;;;;;;13.02;86.83;101830.94;4769181;30;20048;-74
2022/08/02 04:29:17;;;;;;;4.80;3.03;;;;;;;12.99;87.25;101832.56;4769604;30;20131;-75
2022/08/02 04:31:44;;;;;;;6.88;3.58;;;;;;;12.99;87.19;101823.78;4768396;30;20064;-74
2022/08/02 04:34:11;;;;;;;4.57;3.25;;;;;;;12.98;87.11;101824.97;4767646;30;20110;-74
2022/08/02 04:36:42;;;;;;;4.40;3.53;;;;;;;12.94;87.71;101830.41;4768894;30;20044;-74
2022/08/02 04:39:09;;;;;;;7.07;3.47;;;;;;;12.92;87.12;101830.09;4767480;30;20153;-74
2022/08/02 04:41:40;;;;;;;6.88;3.15;;;;;;;12.92;87.48;101832.75;4767328;30;20585;-74
2022/08/02 04:44:10;;;;;;;5.45;3.50;;;;;;;12.91;88.07;101827.84;4767467;29;20557;-74
2022/08/02 04:46:37;;;;;;;4.40;3.58;;;;;;;12.92;87.92;101826.69;4768206;30;20055;-75
2022/08/02 04:49:04;;;;;;;4.43;3.20;;;;;;;12.93;88.12;101828.91;4767070;29;20056;-74
2022/08/02 04:51:36;;;;;;;4.32;3.50;;;;;;;12.96;87.68;101833.41;4768620;30;20051;-74
2022/08/02 04:54:05;;;;;;;3.58;3.10;;;;;;;12.98;87.75;101824.97;4768648;30;20056;-74
2022/08/02 04:56:38;;;;;;;3.95;3.17;;;;;;;13.03;87.93;101835.88;4768892;30;20052;-74
2022/08/02 04:59:05;;;;;;;3.92;3.50;;;;;;;13.09;87.59;101824.63;4768541;30;20517;-74
2022/08/02 05:01:33;;;;;;;3.42;3.22;;;;;;;13.15;87.49;101818.31;4767939;30;20157;-74
2022/08/02 05:04:01;;;;;;;5.55;2.83;;;;;;;13.21;86.83;101807.84;4768665;30;20060;-74
2022/08/02 05:06:27;;;;;;;5.50;3.70;;;;;;;13.28;86.89;101807.59;4768459;30;20113;-74
2022/08/02 05:08:54;;;;;;;4.55;3.47;;;;;;;13.47;86.53;101808.53;4768518;30;20049;-74
2022/08/02 05:11:21;;;;;;;5.20;3.80;;;;;;;14.75;82.51;101809.28;4768540;30;20053;-74
2022/08/02 05:14:02;;;;;;;12.00;3.70;;;;;;;15.85;77.04;101799.41;4768507;30;20052;-74
2022/08/02 05:16:29;;;;;;;3.65;3.35;;;;;;;16.32;74.77;101798.84;4768065;30;20083;-74
2022/08/02 05:18:59;;;;;;;4.40;3.58;;;;;;;17.06;70.89;101808.06;4768449;30;20126;-74
2022/08/02 05:21:25;;;;;;;4.57;3.58;;;;;;;17.99;66.60;101802.16;4768214;30;20056;-74
2022/08/02 05:23:55;;;;;;;7.85;3.30;;;;;;;19.44;61.98;101805.34;4768174;30;20507;-74
2022/08/02 05:26:24;;;;;;;5.20;3.45;;;;;;;20.36;58.96;101799.03;4773888;30;20549;-75
2022/08/02 05:28:51;;;;;;;6.75;4.18;;;;;;;21.18;54.60;101806.09;4774324;30;20052;-74
2022/08/02 05:31:19;;;;;;;6.38;2.85;;;;;;;22.15;52.47;101811.91;4772528;30;20143;-74
2022/08/02 05:33:45;;;;;;;5.63;3.28;;;;;;;22.48;50.29;101810.38;4774524;30;20056;-74
2022/08/02 05:36:12;;;;;;;6.30;3.08;;;;;;;22.67;49.21;101816.75;4772724;30;20511;-74
2022/08/02 05:38:41;;;;;;;3.88;2.95;;;;;;;22.65;49.38;101813.78;4774029;30;20048;-75
2022/08/02 05:41:16;;;;;;;8.95;3.20;;;;;;;23.23;48.18;101821.94;4772912;30;20502;-75
2022/08/02 05:43:43;;;;;;;4.93;3.08;;;;;;;23.28;47.52;101815.75;4772440;30;20064;-76
2022/08/02 05:46:10;;;;;;;5.43;3.33;;;;;;;22.79;48.63;101826.31;4774164;30;20059;-76
2022/08/02 05:48:37;;;;;;;4.45;2.80;;;;;;;22.71;49.11;101824.63;4773836;30;20580;-76
2022/08/02 05:51:09;;;;;;;10.27;3.95;;;;;;;22.86;49.16;101828.53;4774010;30;20052;-76
2022/08/02 05:53:40;;;;;;;6.88;3.28;;;;;;;23.14;47.97;101825.72;4774090;30;20055;-75
2022/08/02 05:56:33;;;;;;;5.03;3.10;;;;;;;23.20;49.15;101828.38;4772669;30;20063;-75
2022/08/02 05:59:16;;;;;;;4.00;2.90;;;;;;;23.21;49.08;101825.16;4790687;29;20059;-75
2022/08/02 06:01:47;;;;;;;3.78;3.10;;;;;;;22.82;49.75;101827.31;4791710;29;20063;-77
2022/08/02 06:04:23;;;;;;;5.38;2.95;;;;;;;22.51;50.03;101825.66;4791826;29;20105;-76
2022/08/02 06:06:55;;;;;;;10.82;3.25;;;;;;;21.87;52.18;101820.03;4791881;29;20048;-74
2022/08/02 06:09:21;;;;;;;;;;;;;;;22.10;53.02;101818.06;4792083;29;20051;-73
2022/08/02 06:11:57;;;;;;;7.05;3.03;;;;;;;22.22;52.08;101819.53;4791526;29;20019;-74
2022/08/02 06:14:31;;;;;;;6.18;2.88;;;;;;;22.24;52.35;101810.91;4791163;29;20533;-71
2022/08/02 06:17:08;;;;;;;3.25;2.90;;;;;;;22.38;52.43;101809.91;4791504;29;20493;-71
2022/08/02 06:19:40;;;;;;;6.57;3.25;;;;;;;22.21;53.16;101803.75;4791659;29;20068;-71
2022/08/02 06:22:19;;;;;;;7.95;3.00;;;;;;;22.20;52.73;101805.72;4791515;29;20056;-72
2022/08/02 06:25:03;;;;;;;6.00;3.38;;;;;;;21.56;54.35;101798.56;4791314;29;20138;-71
2022/08/02 06:27:30;;;;;;;4.90;3.22;;;;;;;21.09;55.60;101797.44;4791031;29;20058;-72
2022/08/02 06:29:57;;;;;;;4.55;3.38;;;;;;;20.84;56.91;101788.22;4791417;29;20054;-72
2022/08/02 06:32:26;;;;;;;4.57;3.85;;;;;;;20.76;57.65;101798.06;4775206;29;20082;-72
2022/08/02 06:34:52;;;;;;;4.82;3.60;;;;;;;20.74;58.38;101814.03;4791123;29;20048;-73
2022/08/02 06:37:28;;;;;;;10.00;3.67;;;;;;;20.81;58.26;101817.00;4788228;29;20058;-73
2022/08/02 06:40:24;;;;;;;6.70;3.85;;;;;;;20.76;59.42;101812.31;4788325;29;20052;-73
2022/08/02 06:43:05;;;;;;;9.13;3.67;;;;;;;20.90;59.57;101813.34;4781760;29;20074;-74
2022/08/02 06:45:33;;;;;;;11.30;4.57;;;;;;;20.89;59.08;101806.47;4788396;29;20129;-74
2022/08/02 06:48:00;;;;;;;4.75;4.00;;;;;;;20.80;59.21;101791.16;4787625;29;20286;-74
2022/08/02 06:50:26;;;;;;;10.68;4.35;;;;;;;20.61;59.76;101795.50;4786637;29;20056;-74
2022/08/02 06:52:53;;;;;;;5.20;4.15;;;;;;;20.47;60.09;101782.88;4787954;29;20080;-74
2022/08/02 06:55:19;;;;;;;14.35;4.63;;;;;;;20.66;60.51;101786.69;4788512;29;20043;-74
2022/08/02 06:57:46;;;;;;;10.20;4.80;;;;;;;20.57;60.76;101776.06;4787842;29;20052;-74
2022/08/02 07:00:13;;;;;;;6.78;4.82;;;;;;;20.62;61.07;101780.75;4787807;29;20130;-74
2022/08/02 07:02:39;;;;;;;10.88;5.55;;;;;;;20.67;61.26;101774.66;4787823;29;20111;-74
2022/08/02 07:05:07;;;;;;;6.97;5.07;;;;;;;20.64;60.73;101770.94;4787976;29;20526;-74
2022/08/02 07:07:34;;;;;;;9.43;5.70;;;;;;;20.77;61.12;101764.38;4787606;29;20575;-74
2022/08/02 07:10:00;;;;;;;6.10;5.38;;;;;;;20.82;61.32;101767.06;4787839;29;20052;-73
2022/08/02 07:12:29;;;;;;;11.05;6.05;;;;;;;20.90;61.54;101770.78;4787420;29;20300;-73
2022/08/02 07:14:57;;;;;;;7.80;5.93;;;;;;;20.80;61.25;101757.94;4786304;29;20060;-72
2022/08/02 07:17:23;;;;;;;10.93;6.45;;;;;;;20.93;60.51;101766.38;4787517;29;20048;-72
2022/08/02 07:19:50;;;;;;;19.13;7.03;;;;;;;21.01;61.06;101763.94;4787902;29;20097;-74
2022/08/02 07:22:19;;;;;;;7.75;6.18;;;;;;;21.00;60.48;101768.63;4787755;29;20056;-74
2022/08/02 07:24:45;;;;;;;9.25;6.50;;;;;;;20.89;61.12;101769.31;4787813;29;20125;-74
2022/08/02 07:27:12;;;;;;;7.72;6.30;;;;;;;21.09;61.69;101765.69;4787087;29;20059;-73
2022/08/02 07:29:40;;;;;;;6.82;6.20;;;;;;;21.32;60.97;101766.50;4787748;29;20078;-74
2022/08/02 07:32:19;;;;;;;9.10;6.60;;;;;;;21.59;60.38;101770.50;4787619;29;20552;-74
2022/08/02 07:34:47;;;;;;;7.55;5.82;;;;;;;21.67;60.21;101768.00;4787965;29;20056;-75
2022/08/02 07:37:23;;;;;;;7.30;5.82;;;;;;;21.69;59.87;101770.97;4787153;29;20139;-73
2022/08/02 07:40:11;;;;;;;11.15;6.32;;;;;;;21.49;60.46;101766.53;4787482;29;20051;-73
2022/08/02 07:42:44;;;;;;;10.75;6.60;;;;;;;21.60;60.51;101764.56;4786236;29;20678;-72
2022/08/02 07:45:11;;;;;;;12.07;6.80;;;;;;;21.71;61.01;101753.00;4787659;29;20543;-74
2022/08/02 07:47:40;;;;;;;7.47;6.45;;;;;;;22.06;60.68;101757.19;4786478;29;20106;-73
2022/08/02 07:50:09;;;;;;;8.68;7.25;;;;;;;22.11;59.41;101756.44;4786833;29;20087;-73
2022/08/02 07:52:35;;;;;;;9.23;7.30;;;;;;;22.21;59.15;101760.38;4787140;29;20129;-73
2022/08/02 07:55:03;;;;;;;11.15;6.95;;;;;;;22.35;59.93;101764.78;4786644;29;20052;-74
2022/08/02 07:57:30;;;;;;;10.85;8.13;;;;;;;22.54;60.09;101756.81;4787148;29;20062;-73
2022/08/02 07:59:56;;;;;;;10.68;8.18;;;;;;;22.59;60.13;101754.09;4787105;29;20532;-73
2022/08/02 08:02:23;;;;;;;9.02;7.40;;;;;;;22.79;59.16;101752.34;4786713;29;20060;-73
2022/08/02 08:04:51;;;;;;;12.73;8.18;;;;;;;22.95;60.22;101749.50;4787036;29;20066;-74
2022/08/02 08:07:19;;;;;;;9.43;7.38;;;;;;;23.06;58.93;101750.69;4787100;29;20087;-74
2022/08/02 08:09:46;;;;;;;13.23;9.35;;;;;;;23.00;59.67;101755.41;4786782;29;20051;-74
2022/08/02 08:12:15;;;;;;;10.85;8.43;;;;;;;23.07;59.17;101755.63;4786763;29;20109;-74
2022/08/02 08:14:43;;;;;;;13.80;8.73;;;;;;;23.26;58.74;101753.03;4786544;29;20079;-75
2022/08/02 08:17:10;;;;;;;11.82;7.68;;;;;;;23.53;59.64;101759.56;4786716;29;20521;-71
2022/08/02 08:19:37;;;;;;;9.32;7.35;;;;;;;23.73;58.44;101752.97;4786907;29;20056;-72
2022/08/02 08:22:20;;;;;;;11.95;7.13;;;;;;;23.84;57.38;101747.44;4786845;29;20458;-72
2022/08/02 08:24:47;;;;;;;7.78;6.97;;;;;;;23.72;58.48;101746.06;4786379;29;20135;-72
2022/08/02 08:27:21;;;;;;;10.43;6.82;;;;;;;23.67;57.74;101749.53;4787002;29;20087;-72
2022/08/02 08:29:48;;;;;;;7.10;6.00;;;;;;;23.73;58.86;101747.53;4787160;29;20051;-72
2022/08/02 08:32:14;;;;;;;10.32;5.20;;;;;;;23.93;58.63;101745.13;4786796;29;20047;-72
2022/08/02 08:34:47;;;;;;;5.00;4.50;;;;;;;24.33;58.67;101745.47;4786386;29;20179;-71
2022/08/02 08:37:14;;;;;;;4.82;4.35;;;;;;;24.48;55.99;101745.06;4786633;29;20427;-74
2022/08/02 08:39:45;;;;;;;4.82;3.90;;;;;;;24.33;55.33;101742.03;4785600;29;20524;-72
2022/08/02 08:42:27;;;;;;;4.30;3.90;;;;;;;24.14;55.22;101741.94;4786428;29;20087;-71
2022/08/02 08:44:55;;;;;;;3.22;2.92;;;;;;;24.20;56.03;101737.19;4786403;29;20116;-71
2022/08/02 08:47:26;;;;;;;18.23;9.68;;;;;;;24.13;55.97;101743.19;4786403;29;20048;-71
2022/08/02 08:50:03;;;;;;;3.95;3.65;;;;;;;24.02;56.22;101741.31;4768446;29;20059;-71
2022/08/02 08:52:35;;;;;;;3.30;3.03;;;;;;;24.08;55.30;101739.28;4768138;30;20048;-72
2022/08/02 08:55:08;;;;;;;4.72;3.42;;;;;;;24.24;56.47;101735.66;4768707;30;20048;-71
2022/08/02 08:57:39;;;;;;;5.72;3.00;;;;;;;24.42;55.51;101739.66;4768562;30;20052;-71
2022/08/02 09:00:06;;;;;;;3.70;3.05;;;;;;;24.57;54.99;101734.56;4766589;30;20059;-72
2022/08/02 09:02:35;;;;;;;3.38;3.08;;;;;;;24.52;54.40;101740.06;4767728;30;20526;-71
2022/08/02 09:05:01;;;;;;;3.60;3.25;;;;;;;24.42;54.21;101745.13;4768295;30;20064;-72
2022/08/02 09:07:28;;;;;;;3.83;3.40;;;;;;;24.52;55.02;101740.78;4767803;30;20585;-71
2022/08/02 09:09:55;;;;;;;6.80;3.38;;;;;;;24.61;55.02;101742.44;4768260;30;20439;-72
2022/08/02 09:12:23;;;;;;;3.53;3.33;;;;;;;24.69;54.42;101737.13;4768338;30;20048;-72
2022/08/02 09:14:51;;;;;;;5.35;3.30;;;;;;;24.89;53.89;101745.50;4766952;30;20048;-72
2022/08/02 09:17:18;;;;;;;4.97;3.72;;;;;;;24.92;53.32;101739.03;4768292;30;20075;-72
2022/08/02 09:20:05;;;;;;;3.67;3.38;;;;;;;25.22;53.98;101746.31;4768338;30;20052;-72
2022/08/02 09:22:31;;;;;;;4.35;3.85;;;;;;;25.13;53.39;101742.00;4767691;30;20522;-72
2022/08/02 09:24:58;;;;;;;4.22;3.90;;;;;;;25.38;53.14;101742.59;4767958;30;20106;-71
2022/08/02 09:27:24;;;;;;;4.70;3.88;;;;;;;25.43;52.59;101749.97;4768014;30;20490;-72
2022/08/02 09:29:53;;;;;;;7.20;5.07;;;;;;;25.44;52.93;101742.53;4768132;30;20052;-72
2022/08/02 09:32:46;;;;;;;5.03;4.00;;;;;;;25.79;53.40;101744.19;4767971;30;20053;-72
2022/08/02 09:35:29;;;;;;;4.68;4.28;;;;;;;26.00;53.08;101742.31;4767698;30;20067;-72
2022/08/02 09:38:16;;;;;;;4.63;4.20;;;;;;;26.15;52.33;101745.25;4768375;30;20056;-72
2022/08/02 09:40:43;;;;;;;5.90;4.70;;;;;;;25.94;52.12;101741.69;4767809;30;20056;-72
2022/08/02 09:43:09;;;;;;;6.03;4.90;;;;;;;25.77;52.65;101754.88;4767877;30;20122;-72
2022/08/02 09:45:36;;;;;;;6.88;4.75;;;;;;;25.56;53.47;101755.47;4767731;30;20055;-72
2022/08/02 09:48:07;;;;;;;5.80;4.45;;;;;;;25.74;53.33;101755.94;4771973;29;20092;-74
2022/08/02 09:50:35;;;;;;;5.32;4.93;;;;;;;25.71;52.59;101756.97;4784869;29;20131;-75
2022/08/02 09:53:03;;;;;;;8.52;6.07;;;;;;;25.84;52.61;101749.56;4785450;29;20670;-75
2022/08/02 09:55:29;;;;;;;6.65;5.85;;;;;;;26.00;52.48;101753.22;4785624;29;20052;-74
2022/08/02 09:57:56;;;;;;;5.75;5.30;;;;;;;26.01;52.41;101751.97;4785519;29;20051;-75
2022/08/02 10:00:23;;;;;;;5.32;4.93;;;;;;;26.01;52.81;101746.50;4785474;29;20055;-75
2022/08/02 10:03:11;;;;;;;7.22;4.90;;;;;;;26.16;53.69;101751.47;4785347;29;20141;-75
2022/08/02 10:05:53;;;;;;;6.22;5.40;;;;;;;26.25;52.45;101754.50;4785365;29;20052;-75
2022/08/02 10:08:29;;;;;;;8.15;5.68;;;;;;;26.41;51.42;101752.72;4785546;29;20055;-75
2022/08/02 10:11:00;;;;;;;5.50;5.05;;;;;;;26.39;51.67;101744.31;4787055;29;20135;-74
2022/08/02 10:13:32;;;;;;;5.55;4.82;;;;;;;26.40;50.51;101742.31;4788134;29;20499;-74
2022/08/02 10:16:01;;;;;;;6.38;5.30;;;;;;;26.18;52.19;101749.66;4788376;29;20056;-73
2022/08/02 10:18:28;;;;;;;4.70;4.20;;;;;;;26.29;52.85;101743.28;4787096;29;20059;-73
2022/08/02 10:21:11;;;;;;;8.70;4.40;;;;;;;26.33;53.27;101754.63;4788107;29;20058;-73
2022/08/02 10:23:39;;;;;;;4.57;4.25;;;;;;;26.14;52.01;101749.25;4788800;29;20498;-72
2022/08/02 10:26:06;;;;;;;5.18;4.68;;;;;;;26.04;53.02;101748.19;4788677;29;20442;-73
2022/08/02 10:28:33;;;;;;;5.85;4.90;;;;;;;26.04;53.01;101750.19;4788408;29;20055;-72
2022/08/02 10:31:02;;;;;;;5.38;4.78;;;;;;;26.41;52.48;101749.25;4788453;29;20052;-72
2022/08/02 10:33:34;;;;;;;5.17;4.03;;;;;;;26.58;51.94;101744.19;4788582;29;20055;-73
2022/08/02 10:36:03;;;;;;;5.78;4.05;;;;;;;26.73;51.91;101732.72;4788573;29;20056;-73
2022/08/02 10:38:34;;;;;;;5.20;3.92;;;;;;;27.08;51.55;101739.66;4788095;29;20155;-73
2022/08/02 10:41:00;;;;;;;4.10;3.63;;;;;;;27.28;50.61;101738.94;4788246;29;20067;-73
2022/08/02 10:43:30;;;;;;;3.50;3.30;;;;;;;27.43;49.52;101730.88;4788118;29;20052;-72
2022/08/02 10:46:34;;;;;;;4.32;2.90;;;;;;;27.65;49.88;101732.34;4787897;29;20060;-73
2022/08/02 10:49:03;;;;;;;5.03;3.53;;;;;;;27.36;49.11;101733.53;4787337;29;20059;-72
2022/08/02 10:52:01;;;;;;;4.85;3.10;;;;;;;27.43;49.96;101727.41;4784109;29;20106;-75
2022/08/02 10:54:34;;;;;;;3.60;3.22;;;;;;;27.41;48.27;101733.41;4776589;29;20058;-73
2022/08/02 10:57:01;;;;;;;2.95;2.70;;;;;;;27.04;48.64;101729.06;4779114;29;20059;-73
2022/08/02 10:59:31;;;;;;;2.85;2.65;;;;;;;27.22;47.98;101727.41;4778491;29;20059;-73
2022/08/02 11:02:05;;;;;;;2.80;2.60;;;;;;;27.26;47.72;101724.34;4777919;29;20135;-73
2022/08/02 11:04:54;;;;;;;2.97;2.70;;;;;;;27.50;48.55;101718.53;4775195;29;20067;-73
2022/08/02 11:07:33;;;;;;;2.85;2.70;;;;;;;27.62;46.86;101722.47;4776484;29;20056;-73
2022/08/02 11:10:52;;;;;;;2.85;2.65;;;;;;;27.87;47.03;101720.81;4773834;29;20047;-74
2022/08/02 11:13:19;;;;;;;2.63;2.42;;;;;;;27.92;45.46;101727.41;4767779;29;20063;-74
2022/08/02 11:16:00;;;;;;;2.42;2.20;;;;;;;27.95;45.31;101715.41;4769921;30;20052;-74
2022/08/02 11:18:42;;;;;;;;;;;;;;;28.15;47.92;101709.09;4768223;30;20056;-74
2022/08/02 11:21:21;;;;;;;2.05;1.95;;;;;;;28.19;46.27;101714.97;4769568;30;19930;-74
2022/08/02 11:23:48;;;;;;;2.20;2.10;;;;;;;28.23;44.28;101705.69;4769431;30;20056;-74
2022/08/02 11:26:30;;;;;;;1.85;1.75;;;;;;;28.26;44.17;101710.81;4769931;30;20048;-74
2022/08/02 11:29:02;;;;;;;3.17;1.63;;;;;;;28.40;42.54;101730.59;4769685;30;20058;-74
2022/08/02 11:31:38;;;;;;;3.55;1.63;;;;;;;28.50;43.17;101718.56;4769343;29;20052;-74
2022/08/02 11:34:05;;;;;;;2.70;1.70;;;;;;;28.48;41.84;101712.91;4768559;30;20048;-74
2022/08/02 11:36:53;;;;;;;3.72;1.48;;;;;;;28.60;43.15;101715.31;4769598;30;20061;-74
2022/08/02 11:39:21;;;;;;;3.33;1.60;;;;;;;28.29;42.00;101717.97;4753519;30;20071;-74
2022/08/02 11:41:56;;;;;;;1.33;1.30;;;;;;;28.30;41.65;101726.91;4769747;30;20050;-75
2022/08/02 11:44:25;;;;;;;1.35;1.33;;;;;;;28.49;42.72;101713.66;4769529;29;20055;-75